createdAt,value
2018-07-12T00:00:59.397Z,80.96
2018-07-12T00:03:27.185Z,80.84
2018-07-12T00:05:54.956Z,80.53
2018-07-12T00:08:22.748Z,81.44
2018-07-12T00:10:50.515Z,80.63
2018-07-12T00:13:18.322Z,81.00
2018-07-12T00:15:46.100Z,81.51
2018-07-12T00:18:13.892Z,81.77
2018-07-12T00:20:41.644Z,81.31
2018-07-12T00:23:09.445Z,81.98
2018-07-12T00:25:37.277Z,81.80
2018-07-12T00:28:05.061Z,81.54
2018-07-12T00:30:33.232Z,81.37
2018-07-12T00:33:01.034Z,81.54
2018-07-12T00:35:28.820Z,81.99
2018-07-12T00:37:56.593Z,81.62
2018-07-12T00:40:24.384Z,82.35
2018-07-12T00:42:52.152Z,82.57
2018-07-12T00:45:19.934Z,82.77
2018-07-12T00:47:47.683Z,82.44
2018-07-12T00:50:15.465Z,82.33
2018-07-12T00:52:43.216Z,82.85
2018-07-12T00:55:11.000Z,82.41
2018-07-12T00:57:38.751Z,82.42
2018-07-12T01:00:06.523Z,82.32
2018-07-12T01:02:34.272Z,82.11
2018-07-12T01:05:02.068Z,82.02
2018-07-12T01:07:29.876Z,82.08
2018-07-12T01:09:57.680Z,82.36
2018-07-12T01:12:25.447Z,82.48
2018-07-12T01:14:53.221Z,81.88
2018-07-12T01:17:20.985Z,82.02
2018-07-12T01:19:48.773Z,81.74
2018-07-12T01:22:16.561Z,82.55
2018-07-12T01:24:44.347Z,82.48
2018-07-12T01:27:12.088Z,81.95
2018-07-12T01:29:39.868Z,82.01
2018-07-12T01:32:07.612Z,81.97
2018-07-12T01:34:35.382Z,81.50
2018-07-12T01:37:03.148Z,81.44
2018-07-12T01:39:30.896Z,81.89
2018-07-12T01:41:58.672Z,81.72
2018-07-12T01:44:26.428Z,81.81
2018-07-12T01:46:54.211Z,82.52
2018-07-12T01:49:21.959Z,81.62
2018-07-12T01:51:49.728Z,82.33
2018-07-12T01:54:17.479Z,82.21
2018-07-12T01:56:45.268Z,81.34
2018-07-12T01:59:13.046Z,81.48
2018-07-12T02:01:40.821Z,81.65
2018-07-12T02:04:08.587Z,81.68
2018-07-12T02:06:36.369Z,81.50
2018-07-12T02:09:04.835Z,81.36
2018-07-12T02:11:32.636Z,81.50
2018-07-12T02:14:00.424Z,81.62
2018-07-12T02:16:28.204Z,81.75
2018-07-12T02:18:55.952Z,82.17
2018-07-12T02:21:23.724Z,82.67
2018-07-12T02:23:51.472Z,82.31
2018-07-12T02:26:19.248Z,83.26
2018-07-12T02:28:47.002Z,83.05
2018-07-12T02:31:14.770Z,82.96
2018-07-12T02:33:42.524Z,82.19
2018-07-12T02:36:10.303Z,81.86
2018-07-12T02:38:38.068Z,81.98
2018-07-12T02:41:05.840Z,82.63
2018-07-12T02:43:33.640Z,82.78
2018-07-12T02:46:01.416Z,82.61
2018-07-12T02:48:29.195Z,82.74
2018-07-12T02:50:56.949Z,83.64
2018-07-12T02:53:24.716Z,83.91
2018-07-12T02:55:52.472Z,82.69
2018-07-12T02:58:20.252Z,83.67
2018-07-12T03:00:48.013Z,83.66
2018-07-12T03:03:15.777Z,83.56
2018-07-12T03:05:43.523Z,84.18
2018-07-12T03:08:11.305Z,84.31
2018-07-12T03:10:39.052Z,83.93
2018-07-12T03:13:06.833Z,83.57
2018-07-12T03:15:34.589Z,82.99
2018-07-12T03:18:02.377Z,83.28
2018-07-12T03:20:30.129Z,83.19
2018-07-12T03:22:57.912Z,83.45
2018-07-12T03:25:25.676Z,83.63
2018-07-12T03:27:53.448Z,83.57
2018-07-12T03:30:21.204Z,83.20
2018-07-12T03:32:48.978Z,82.86
2018-07-12T03:35:16.730Z,82.80
2018-07-12T03:37:44.516Z,83.13
2018-07-12T03:40:12.272Z,82.51
2018-07-12T03:42:40.044Z,82.85
2018-07-12T03:45:07.788Z,82.09
2018-07-12T03:47:35.560Z,82.25
2018-07-12T03:50:03.313Z,82.22
2018-07-12T03:52:31.092Z,82.08
2018-07-12T03:54:58.844Z,82.00
2018-07-12T03:57:26.600Z,82.31
2018-07-12T03:59:54.378Z,82.04
2018-07-12T04:02:22.132Z,81.73
2018-07-12T04:04:49.957Z,81.96
2018-07-12T04:07:17.708Z,82.00
2018-07-12T04:09:45.505Z,81.86
2018-07-12T04:12:13.251Z,82.47
2018-07-12T04:14:41.028Z,82.15
2018-07-12T04:17:08.789Z,81.79
2018-07-12T04:19:36.564Z,82.59
2018-07-12T04:22:04.321Z,82.69
2018-07-12T04:24:32.116Z,82.54
2018-07-12T04:26:59.865Z,81.83
2018-07-12T04:29:27.654Z,81.71
2018-07-12T04:31:55.425Z,81.63
2018-07-12T04:34:23.208Z,82.22
2018-07-12T04:36:50.964Z,81.57
2018-07-12T04:39:18.752Z,81.62
2018-07-12T04:41:46.504Z,82.11
2018-07-12T04:44:14.280Z,81.80
2018-07-12T04:46:42.056Z,81.62
2018-07-12T04:49:09.828Z,82.00
2018-07-12T04:51:37.581Z,81.85
2018-07-12T04:54:05.364Z,82.33
2018-07-12T04:56:33.122Z,81.73
2018-07-12T04:59:00.932Z,81.83
2018-07-12T05:01:28.731Z,82.03
2018-07-12T05:03:56.484Z,82.11
2018-07-12T05:06:24.261Z,81.78
2018-07-12T05:08:52.013Z,81.33
2018-07-12T05:11:19.784Z,81.43
2018-07-12T05:13:47.560Z,81.71
2018-07-12T05:16:15.401Z,81.16
2018-07-12T05:18:43.108Z,81.19
2018-07-12T05:21:10.893Z,81.45
2018-07-12T05:23:38.666Z,81.31
2018-07-12T05:26:06.457Z,82.13
2018-07-12T05:28:34.215Z,81.32
2018-07-12T05:31:02.004Z,80.86
2018-07-12T05:33:29.770Z,81.05
2018-07-12T05:35:58.706Z,80.89
2018-07-12T05:38:27.553Z,81.09
2018-07-12T05:40:56.382Z,81.32
2018-07-12T05:43:25.231Z,81.49
2018-07-12T05:45:54.050Z,81.59
2018-07-12T05:48:22.860Z,81.23
2018-07-12T05:50:52.033Z,81.89
2018-07-12T05:53:21.120Z,81.36
2018-07-12T05:55:50.224Z,80.51
2018-07-12T05:58:19.343Z,80.36
2018-07-12T06:00:48.434Z,80.60
2018-07-12T06:03:17.580Z,79.85
2018-07-12T06:05:46.665Z,79.87
2018-07-12T06:08:15.777Z,80.39
2018-07-12T06:10:45.589Z,80.37
2018-07-12T06:13:14.755Z,79.68
2018-07-12T06:15:43.790Z,79.68
2018-07-12T06:18:12.900Z,79.03
2018-07-12T06:20:42.004Z,79.79
2018-07-12T06:23:11.176Z,79.36
2018-07-12T06:25:40.256Z,78.25
2018-07-12T06:28:09.381Z,78.57
2018-07-12T06:30:38.459Z,78.41
2018-07-12T06:33:07.592Z,78.27
2018-07-12T06:35:36.975Z,77.19
2018-07-12T06:38:06.117Z,77.40
2018-07-12T06:40:35.245Z,77.15
2018-07-12T06:43:04.456Z,77.45
2018-07-12T06:45:33.544Z,76.68
2018-07-12T06:48:04.432Z,76.84
2018-07-12T06:50:33.576Z,77.62
2018-07-12T06:53:02.712Z,77.82
2018-07-12T06:55:32.709Z,76.28
2018-07-12T07:00:36.449Z,77.27
2018-07-12T07:03:13.439Z,76.54
2018-07-12T07:05:42.544Z,75.37
2018-07-12T07:08:11.664Z,74.66
2018-07-12T07:10:40.887Z,75.16
2018-07-12T07:13:10.385Z,75.64
2018-07-12T07:15:39.613Z,74.00
2018-07-12T07:18:08.729Z,73.41
2018-07-12T07:20:37.912Z,74.23
2018-07-12T07:23:07.076Z,73.37
2018-07-12T07:25:36.217Z,71.25
2018-07-12T07:28:05.453Z,72.23
2018-07-12T07:30:34.591Z,72.15
2018-07-12T07:33:03.710Z,71.00
2018-07-12T07:35:32.912Z,71.60
2018-07-12T07:38:02.458Z,71.38
2018-07-12T07:40:32.757Z,70.39
2018-07-12T07:43:02.041Z,70.53
2018-07-12T07:45:31.084Z,70.89
2018-07-12T07:48:00.536Z,70.49
2018-07-12T07:50:29.805Z,69.50
2018-07-12T07:52:58.959Z,69.70
2018-07-12T07:55:28.108Z,68.88
2018-07-12T07:57:57.205Z,68.28
2018-07-12T08:00:26.342Z,68.01
2018-07-12T08:02:55.440Z,68.74
2018-07-12T08:05:24.569Z,68.73
2018-07-12T08:07:53.668Z,69.09
2018-07-12T08:10:22.864Z,68.31
2018-07-12T08:12:51.968Z,68.94
2018-07-12T08:15:21.261Z,69.17
2018-07-12T08:17:50.456Z,69.02
2018-07-12T08:20:20.540Z,68.06
2018-07-12T08:22:49.688Z,68.39
2018-07-12T08:25:19.057Z,66.93
2018-07-12T08:27:59.822Z,66.59
2018-07-12T08:30:29.196Z,67.79
2018-07-12T08:32:59.964Z,66.12
2018-07-12T08:35:29.201Z,63.65
2018-07-12T08:37:58.464Z,65.77
2018-07-12T08:40:28.514Z,65.87
2018-07-12T08:42:58.149Z,67.37
2018-07-12T08:45:27.532Z,65.17
2018-07-12T08:47:57.578Z,66.24
2018-07-12T08:50:27.045Z,65.80
2018-07-12T08:52:57.043Z,65.73
2018-07-12T08:55:27.603Z,63.60
2018-07-12T08:57:56.814Z,64.45
2018-07-12T09:00:26.013Z,63.98
2018-07-12T09:02:55.241Z,62.67
2018-07-12T09:05:24.367Z,62.01
2018-07-12T09:07:53.878Z,62.47
2018-07-12T09:10:22.990Z,60.80
2018-07-12T09:12:52.342Z,61.50
2018-07-12T09:15:21.456Z,60.61
2018-07-12T09:17:50.555Z,60.43
2018-07-12T09:20:19.702Z,60.75
2018-07-12T09:22:48.866Z,60.95
2018-07-12T09:25:18.045Z,61.49
2018-07-12T09:27:47.150Z,61.08
2018-07-12T09:30:16.337Z,57.74
2018-07-12T09:32:45.918Z,58.17
2018-07-12T09:35:15.317Z,59.12
2018-07-12T09:37:44.396Z,59.09
2018-07-12T09:40:13.508Z,58.86
2018-07-12T09:42:42.610Z,59.61
2018-07-12T09:45:11.705Z,56.52
2018-07-12T09:47:40.836Z,58.16
2018-07-12T09:50:10.278Z,57.34
2018-07-12T09:52:39.369Z,57.92
2018-07-12T09:55:08.496Z,57.93
2018-07-12T09:57:48.875Z,58.41
2018-07-12T10:00:18.086Z,56.99
2018-07-12T10:02:52.633Z,57.57
2018-07-12T10:05:26.956Z,58.16
2018-07-12T10:08:01.466Z,58.04
2018-07-12T10:10:30.922Z,56.08
2018-07-12T10:13:05.397Z,56.31
2018-07-12T10:15:39.889Z,55.16
2018-07-12T10:18:14.280Z,54.78
2018-07-12T10:20:43.612Z,57.08
2018-07-12T10:23:12.746Z,55.89
2018-07-12T10:25:41.853Z,55.37
2018-07-12T10:28:10.959Z,53.98
2018-07-12T10:30:40.073Z,54.18
2018-07-12T10:33:09.939Z,53.33
2018-07-12T10:35:39.049Z,52.72
2018-07-12T10:38:08.240Z,52.60
2018-07-12T10:40:37.344Z,53.02
2018-07-12T10:43:06.469Z,52.56
2018-07-12T10:45:35.581Z,52.81
2018-07-12T10:48:04.736Z,52.59
2018-07-12T10:50:34.021Z,49.79
2018-07-12T10:53:03.340Z,52.28
2018-07-12T10:55:32.709Z,51.43
2018-07-12T10:58:01.901Z,51.48
2018-07-12T11:00:31.030Z,51.42
2018-07-12T11:03:00.175Z,52.19
2018-07-12T11:05:29.272Z,50.24
2018-07-12T11:07:58.400Z,50.20
2018-07-12T11:10:27.556Z,50.56
2018-07-12T11:13:08.088Z,49.90
2018-07-12T11:15:37.176Z,50.19
2018-07-12T11:18:07.148Z,48.58
2018-07-12T11:20:36.492Z,50.08
2018-07-12T11:23:05.752Z,50.64
2018-07-12T11:25:34.865Z,50.76
2018-07-12T11:28:04.496Z,51.73
2018-07-12T11:30:34.093Z,50.72
2018-07-12T11:33:45.923Z,51.56
2018-07-12T11:36:15.544Z,50.10
2018-07-12T11:38:45.985Z,49.07
2018-07-12T11:41:15.877Z,49.09
2018-07-12T11:43:45.776Z,48.72
2018-07-12T11:46:16.327Z,49.50
2018-07-12T11:48:47.332Z,49.68
2018-07-12T11:51:16.997Z,50.92
2018-07-12T11:53:46.153Z,49.75
2018-07-12T11:56:15.284Z,48.84
2018-07-12T11:58:46.579Z,47.08
2018-07-12T12:01:15.904Z,45.35
2018-07-12T12:03:45.099Z,46.20
2018-07-12T12:06:14.330Z,46.00
2018-07-12T12:08:43.700Z,46.32
2018-07-12T12:11:12.817Z,46.68
2018-07-12T12:13:41.942Z,45.25
2018-07-12T12:16:11.082Z,43.21
2018-07-12T12:18:40.412Z,44.12
2018-07-12T12:21:09.577Z,43.67
2018-07-12T12:23:38.725Z,42.47
2018-07-12T12:26:07.904Z,42.47
2018-07-12T12:28:37.173Z,43.28
2018-07-12T12:31:06.812Z,43.68
2018-07-12T12:33:36.130Z,43.31
2018-07-12T12:36:05.433Z,45.01
2018-07-12T12:38:34.601Z,43.00
2018-07-12T12:41:04.576Z,42.79
2018-07-12T12:43:33.830Z,43.60
2018-07-12T12:46:02.949Z,43.19
2018-07-12T12:48:32.037Z,44.10
2018-07-12T12:51:01.218Z,41.37
2018-07-12T12:53:30.315Z,41.35
2018-07-12T12:55:59.476Z,41.24
2018-07-12T12:58:28.555Z,41.24
2018-07-12T13:00:57.664Z,40.13
2018-07-12T13:03:26.764Z,39.82
2018-07-12T13:05:55.884Z,41.30
2018-07-12T13:08:24.969Z,42.47
2018-07-12T13:10:54.093Z,41.40
2018-07-12T13:13:23.192Z,41.80
2018-07-12T13:15:52.466Z,41.77
2018-07-12T13:18:21.520Z,42.42
2018-07-12T13:20:50.664Z,42.69
2018-07-12T13:23:20.056Z,43.38
2018-07-12T13:25:49.295Z,41.91
2018-07-12T13:28:18.338Z,41.57
2018-07-12T13:30:47.485Z,42.83
2018-07-12T13:33:16.580Z,42.93
2018-07-12T13:35:45.706Z,40.97
2018-07-12T13:38:14.793Z,41.21
2018-07-12T13:40:43.908Z,44.10
2018-07-12T13:43:13.009Z,42.48
2018-07-12T13:45:42.130Z,43.88
2018-07-12T13:48:11.244Z,44.29
2018-07-12T13:50:40.405Z,44.77
2018-07-12T13:53:09.507Z,43.73
2018-07-12T13:55:38.615Z,44.23
2018-07-12T13:58:07.741Z,42.59
2018-07-12T14:00:36.807Z,43.30
2018-07-12T14:03:05.914Z,43.57
2018-07-12T14:05:35.003Z,43.07
2018-07-12T14:08:04.101Z,42.41
2018-07-12T14:10:33.237Z,42.43
2018-07-12T14:13:02.365Z,42.19
2018-07-12T14:15:31.493Z,41.96
2018-07-12T14:18:00.854Z,43.31
2018-07-12T14:20:29.977Z,44.67
2018-07-12T14:22:59.108Z,45.28
2018-07-12T14:25:28.210Z,44.83
2018-07-12T14:27:57.365Z,45.54
2018-07-12T14:30:26.481Z,47.21
2018-07-12T14:32:55.586Z,48.25
2018-07-12T14:35:24.752Z,48.98
2018-07-12T14:37:53.912Z,48.36
2018-07-12T14:40:23.328Z,48.85
2018-07-12T14:42:52.528Z,47.58
2018-07-12T14:45:21.676Z,46.92
2018-07-12T14:47:50.817Z,45.95
2018-07-12T14:50:19.945Z,45.82
2018-07-12T14:52:49.077Z,46.53
2018-07-12T14:55:18.204Z,47.44
2018-07-12T14:57:47.349Z,46.97
2018-07-12T15:00:16.446Z,46.96
2018-07-12T15:02:45.645Z,48.22
2018-07-12T15:05:14.717Z,46.83
2018-07-12T15:07:43.804Z,47.20
2018-07-12T15:10:12.924Z,47.99
2018-07-12T15:12:42.024Z,48.55
2018-07-12T15:15:11.153Z,47.66
2018-07-12T15:17:40.327Z,47.83
2018-07-12T15:20:09.484Z,47.20
2018-07-12T15:22:38.568Z,47.37
2018-07-12T15:25:07.724Z,48.06
2018-07-12T15:27:36.807Z,49.99
2018-07-12T15:30:06.200Z,50.39
2018-07-12T15:32:35.300Z,51.30
2018-07-12T15:35:04.429Z,52.36
2018-07-12T15:37:33.534Z,52.57
2018-07-12T15:40:02.716Z,51.75
2018-07-12T15:42:31.848Z,51.71
2018-07-12T15:45:00.961Z,51.27
2018-07-12T15:47:30.077Z,51.20
2018-07-12T15:49:59.296Z,51.88
2018-07-12T15:52:28.486Z,53.42
2018-07-12T15:54:57.653Z,54.09
2018-07-12T15:57:26.864Z,52.34
2018-07-12T15:59:55.985Z,53.32
2018-07-12T16:02:25.084Z,53.30
2018-07-12T16:04:54.201Z,53.76
2018-07-12T16:07:23.381Z,53.12
2018-07-12T16:09:52.514Z,52.50
2018-07-12T16:12:21.617Z,53.53
2018-07-12T16:14:50.738Z,52.41
2018-07-12T16:17:19.876Z,51.92
2018-07-12T16:19:49.917Z,52.15
2018-07-12T16:22:19.065Z,52.04
2018-07-12T16:24:48.196Z,52.50
2018-07-12T16:27:17.320Z,52.71
2018-07-12T16:29:46.493Z,52.84
2018-07-12T16:32:15.549Z,52.84
2018-07-12T16:34:44.697Z,52.82
2018-07-12T16:37:13.832Z,53.24
2018-07-12T16:39:42.949Z,53.17
2018-07-12T16:42:12.069Z,52.19
2018-07-12T16:44:41.172Z,51.81
2018-07-12T16:47:11.309Z,50.61
2018-07-12T16:49:40.457Z,51.67
2018-07-12T16:52:09.565Z,51.42
2018-07-12T16:54:38.816Z,52.11
2018-07-12T16:57:07.809Z,51.73
2018-07-12T16:59:36.950Z,53.01
2018-07-12T17:02:06.065Z,52.60
2018-07-12T17:04:35.182Z,52.69
2018-07-12T17:07:04.463Z,52.65
2018-07-12T17:09:33.734Z,51.90
2018-07-12T17:12:02.845Z,50.56
2018-07-12T17:14:31.933Z,51.63
2018-07-12T17:17:01.033Z,51.75
2018-07-12T17:19:30.168Z,52.34
2018-07-12T17:21:59.270Z,51.64
2018-07-12T17:24:28.400Z,51.46
2018-07-12T17:26:57.505Z,52.34
2018-07-12T17:29:26.589Z,52.31
2018-07-12T17:31:55.774Z,51.95
2018-07-12T17:34:24.904Z,51.74
2018-07-12T17:36:54.084Z,52.03
2018-07-12T17:39:23.228Z,51.71
2018-07-12T17:41:52.449Z,52.07
2018-07-12T17:44:21.565Z,52.48
2018-07-12T17:46:50.665Z,52.15
2018-07-12T17:49:19.755Z,51.21
2018-07-12T17:51:48.872Z,52.38
2018-07-12T17:54:17.963Z,52.42
2018-07-12T17:56:47.124Z,52.14
2018-07-12T17:59:17.185Z,51.68
2018-07-12T18:01:46.790Z,51.99
2018-07-12T18:04:19.657Z,51.42
2018-07-12T18:06:48.761Z,52.32
2018-07-12T18:09:17.867Z,52.07
2018-07-12T18:11:46.972Z,52.23
2018-07-12T18:14:16.128Z,52.07
2018-07-12T18:16:45.282Z,52.70
2018-07-12T18:19:14.369Z,52.08
2018-07-12T18:21:43.486Z,51.59
2018-07-12T18:24:12.589Z,52.45
2018-07-12T18:26:41.685Z,52.13
2018-07-12T18:29:10.808Z,52.71
2018-07-12T18:31:39.923Z,51.92
2018-07-12T18:34:09.084Z,53.28
2018-07-12T18:36:38.215Z,52.95
2018-07-12T18:39:09.236Z,53.04
2018-07-12T18:41:38.560Z,52.99
2018-07-12T18:44:07.669Z,53.46
2018-07-12T18:46:36.771Z,53.19
2018-07-12T18:49:06.404Z,53.78
2018-07-12T18:51:36.303Z,53.35
2018-07-12T18:54:05.405Z,53.71
2018-07-12T18:56:34.629Z,54.21
2018-07-12T18:59:03.712Z,54.06
2018-07-12T19:01:32.822Z,54.05
2018-07-12T19:04:01.934Z,54.49
2018-07-12T19:06:31.095Z,54.18
2018-07-12T19:09:00.197Z,54.25
2018-07-12T19:11:29.301Z,54.71
2018-07-12T19:13:58.390Z,54.44
2018-07-12T19:16:27.532Z,54.78
2018-07-12T19:18:56.628Z,55.66
2018-07-12T19:21:25.808Z,55.27
2018-07-12T19:23:58.730Z,55.83
2018-07-12T19:26:27.914Z,55.93
2018-07-12T19:28:57.179Z,56.37
2018-07-12T19:31:26.374Z,57.23
2018-07-12T19:33:55.471Z,57.55
2018-07-12T19:36:24.585Z,57.80
2018-07-12T19:38:53.701Z,57.26
2018-07-12T19:41:22.814Z,57.26
2018-07-12T19:43:52.161Z,57.50
2018-07-12T19:46:21.293Z,57.65
2018-07-12T19:48:51.061Z,57.80
2018-07-12T19:51:20.192Z,58.34
2018-07-12T19:53:49.264Z,59.21
2018-07-12T19:56:18.408Z,59.74
2018-07-12T19:58:47.503Z,59.86
2018-07-12T20:01:16.648Z,61.18
2018-07-12T20:03:45.794Z,60.57
2018-07-12T20:06:14.912Z,60.53
2018-07-12T20:08:44.072Z,61.63
2018-07-12T20:11:13.213Z,61.65
2018-07-12T20:13:42.288Z,61.02
2018-07-12T20:16:11.410Z,61.32
2018-07-12T20:18:40.579Z,61.57
2018-07-12T20:21:09.736Z,61.27
2018-07-12T20:23:38.882Z,61.52
2018-07-12T20:26:08.132Z,61.61
2018-07-12T20:28:37.308Z,61.69
2018-07-12T20:31:06.844Z,61.73
2018-07-12T20:33:36.414Z,61.76
2018-07-12T20:36:05.485Z,62.00
2018-07-12T20:38:34.668Z,61.91
2018-07-12T20:41:03.780Z,62.14
2018-07-12T20:43:33.081Z,62.71
2018-07-12T20:46:02.174Z,63.86
2018-07-12T20:48:31.289Z,64.67
2018-07-12T20:51:00.410Z,65.31
2018-07-12T20:53:29.529Z,65.59
2018-07-12T20:55:58.676Z,65.75
2018-07-12T20:58:27.780Z,66.17
2018-07-12T21:00:56.961Z,65.59
2018-07-12T21:03:26.029Z,65.74
2018-07-12T21:05:55.145Z,65.65
2018-07-12T21:08:24.281Z,65.70
2018-07-12T21:10:53.436Z,65.55
2018-07-12T21:13:22.568Z,65.32
2018-07-12T21:15:51.665Z,65.05
2018-07-12T21:18:20.796Z,64.58
2018-07-12T21:20:49.896Z,65.16
2018-07-12T21:23:19.076Z,65.05
2018-07-12T21:25:48.225Z,65.18
2018-07-12T21:28:17.338Z,65.22
2018-07-12T21:30:46.469Z,64.97
2018-07-12T21:33:15.629Z,65.02
2018-07-12T21:35:44.719Z,65.48
2018-07-12T21:38:14.312Z,65.25
2018-07-12T21:40:43.436Z,65.37
2018-07-12T21:43:12.604Z,65.09
2018-07-12T21:45:41.791Z,65.46
2018-07-12T21:48:10.901Z,65.65
2018-07-12T21:50:40.019Z,65.37
2018-07-12T21:53:09.152Z,65.51
2018-07-12T21:55:38.277Z,65.80
2018-07-12T21:58:07.381Z,65.91
2018-07-12T22:00:36.503Z,65.42
2018-07-12T22:03:05.615Z,66.26
2018-07-12T22:05:34.704Z,66.03
2018-07-12T22:08:27.676Z,65.66
2018-07-12T22:11:05.904Z,65.96
2018-07-12T22:13:36.457Z,66.31
2018-07-12T22:16:05.554Z,66.28
2018-07-12T22:18:34.673Z,66.33
2018-07-12T22:21:03.790Z,66.62
2018-07-12T22:23:32.912Z,67.12
2018-07-12T22:26:01.996Z,66.44
2018-07-12T22:28:31.124Z,67.10
2018-07-12T22:31:00.226Z,67.68
2018-07-12T22:33:29.354Z,68.09
2018-07-12T22:35:58.476Z,69.08
2018-07-12T22:38:27.593Z,69.04
2018-07-12T22:40:56.708Z,69.19
2018-07-12T22:43:25.823Z,68.98
2018-07-12T22:45:54.908Z,68.33
2018-07-12T22:48:24.165Z,68.81
2018-07-12T22:50:53.175Z,68.67
2018-07-12T22:53:22.308Z,68.52
2018-07-12T22:55:51.410Z,68.29
2018-07-12T22:58:20.522Z,68.21
2018-07-12T23:00:49.623Z,68.39
2018-07-12T23:03:18.760Z,68.59
2018-07-12T23:05:47.845Z,68.43
2018-07-12T23:08:16.976Z,68.23
2018-07-12T23:10:46.085Z,68.66
2018-07-12T23:13:15.196Z,68.84
2018-07-12T23:15:44.896Z,68.98
2018-07-12T23:18:14.000Z,68.88
2018-07-12T23:20:43.083Z,68.61
2018-07-12T23:23:12.188Z,68.98
2018-07-12T23:25:41.268Z,69.34
2018-07-12T23:28:10.401Z,69.35
2018-07-12T23:30:39.479Z,69.44
2018-07-12T23:33:08.616Z,69.55
2018-07-12T23:35:37.735Z,69.43
2018-07-12T23:38:06.912Z,69.46
2018-07-12T23:40:35.997Z,69.57
2018-07-12T23:43:05.124Z,69.68
2018-07-12T23:45:34.207Z,70.11
2018-07-12T23:48:03.302Z,70.71
2018-07-12T23:50:32.424Z,70.89
2018-07-12T23:53:01.505Z,71.12
2018-07-12T23:55:30.649Z,71.36
2018-07-12T23:57:59.768Z,71.25
